createdAt,value
2017-12-26T00:01:00.462Z,0.01
2017-12-26T00:01:59.859Z,0.01
2017-12-26T00:03:01.300Z,0.03
2017-12-26T00:03:58.855Z,0.03
2017-12-26T00:04:59.444Z,0
2017-12-26T00:05:59.066Z,0.02
2017-12-26T00:06:59.281Z,0.01
2017-12-26T00:07:59.047Z,0
2017-12-26T00:08:58.802Z,-0.01
2017-12-26T00:09:58.878Z,-0.03
2017-12-26T00:10:59.178Z,-0.04
2017-12-26T00:11:59.091Z,-0.06
2017-12-26T00:12:59.006Z,-0.04
2017-12-26T00:13:59.143Z,-0.07
2017-12-26T00:14:59.134Z,-0.08
2017-12-26T00:15:59.680Z,-0.07
2017-12-26T00:16:59.116Z,-0.04
2017-12-26T00:17:59.694Z,-0.05
2017-12-26T00:19:00.291Z,-0.03
2017-12-26T00:19:59.653Z,-0.04
2017-12-26T00:20:58.965Z,-0.02
2017-12-26T00:21:59.112Z,-0.01
2017-12-26T00:22:59.076Z,-0.02
2017-12-26T00:23:58.887Z,-0.02
2017-12-26T00:24:58.809Z,-0.01
2017-12-26T00:25:59.204Z,-0.02
2017-12-26T00:26:59.038Z,-0.02
2017-12-26T00:27:59.088Z,-0.03
2017-12-26T00:28:59.012Z,-0.06
2017-12-26T00:29:59.006Z,-0.07
2017-12-26T00:30:58.994Z,-0.1
2017-12-26T00:31:59.041Z,-0.11
2017-12-26T00:32:58.890Z,-0.15
2017-12-26T00:33:58.976Z,-0.17
2017-12-26T00:34:58.719Z,-0.17
2017-12-26T00:35:58.860Z,-0.2
2017-12-26T00:36:59.186Z,-0.21
2017-12-26T00:37:58.824Z,-0.22
2017-12-26T00:38:59.005Z,-0.22
2017-12-26T00:39:59.029Z,-0.23
2017-12-26T00:40:58.919Z,-0.2
2017-12-26T00:41:59.068Z,-0.2
2017-12-26T00:42:58.996Z,-0.2
2017-12-26T00:43:58.767Z,-0.2
2017-12-26T00:44:58.930Z,-0.19
2017-12-26T00:45:59.053Z,-0.18
2017-12-26T00:46:58.946Z,-0.18
2017-12-26T00:47:58.969Z,-0.19
2017-12-26T00:48:58.919Z,-0.14
2017-12-26T00:49:59.099Z,-0.09
2017-12-26T00:50:58.983Z,-0.09
2017-12-26T00:51:58.985Z,-0.07
2017-12-26T00:52:58.877Z,-0.06
2017-12-26T00:53:59.077Z,-0.07
2017-12-26T00:54:58.867Z,-0.06
2017-12-26T00:55:58.903Z,-0.04
2017-12-26T00:56:59.132Z,-0.04
2017-12-26T00:57:58.792Z,-0.04
2017-12-26T00:58:59.178Z,-0.04
2017-12-26T00:59:58.737Z,-0.04
2017-12-26T01:00:58.857Z,-0.04
2017-12-26T01:01:59.108Z,-0.05
2017-12-26T01:02:58.938Z,-0.04
2017-12-26T01:03:59.439Z,-0.04
2017-12-26T01:04:58.792Z,-0.02
2017-12-26T01:05:58.817Z,0.01
2017-12-26T01:06:58.809Z,0.01
2017-12-26T01:07:58.880Z,0.01
2017-12-26T01:08:58.882Z,0.02
2017-12-26T01:09:59.355Z,0.03
2017-12-26T01:10:59.094Z,0.05
2017-12-26T01:11:58.947Z,0.03
2017-12-26T01:12:58.967Z,0.07
2017-12-26T01:13:58.826Z,0.09
2017-12-26T01:14:59.145Z,0.11
2017-12-26T01:15:59.336Z,0.13
2017-12-26T01:16:59.122Z,0.1
2017-12-26T01:17:58.793Z,0.1
2017-12-26T01:18:58.932Z,0.15
2017-12-26T01:19:58.953Z,0.12
2017-12-26T01:20:58.851Z,0.12
2017-12-26T01:21:58.867Z,0.14
2017-12-26T01:22:59.092Z,0.1
2017-12-26T01:23:59.206Z,0.12
2017-12-26T01:24:58.852Z,0.12
2017-12-26T01:25:58.926Z,0.13
2017-12-26T01:26:58.970Z,0.11
2017-12-26T01:27:59.049Z,0.09
2017-12-26T01:28:58.981Z,0.08
2017-12-26T01:29:59.051Z,0.11
2017-12-26T01:30:59.029Z,0.08
2017-12-26T01:31:58.990Z,0.08
2017-12-26T01:32:58.830Z,0.08
2017-12-26T01:33:59.025Z,0.11
2017-12-26T01:34:59.163Z,0.09
2017-12-26T01:35:59.073Z,0.07
2017-12-26T01:36:58.920Z,0.11
2017-12-26T01:37:58.795Z,0.1
2017-12-26T01:38:59.054Z,0.09
2017-12-26T01:39:59.010Z,0.05
2017-12-26T01:40:59.084Z,0.07
2017-12-26T01:41:58.909Z,0.03
2017-12-26T01:42:58.874Z,0.01
2017-12-26T01:43:59.070Z,-0.01
2017-12-26T01:44:59.056Z,0
2017-12-26T01:45:58.960Z,0.01
2017-12-26T01:46:58.874Z,0.03
2017-12-26T01:47:59.161Z,0.06
2017-12-26T01:48:58.850Z,0.03
2017-12-26T01:49:59.171Z,0.03
2017-12-26T01:50:58.989Z,0.04
2017-12-26T01:51:58.939Z,0.05
2017-12-26T01:52:59.415Z,0.03
2017-12-26T01:53:59.180Z,0.02
2017-12-26T01:54:59.004Z,0.01
2017-12-26T01:55:58.868Z,-0.03
2017-12-26T01:56:58.890Z,0
2017-12-26T01:57:58.940Z,0.01
2017-12-26T01:58:58.887Z,0.05
2017-12-26T01:59:59.059Z,0.06
2017-12-26T02:00:59.038Z,0.06
2017-12-26T02:01:58.805Z,0.06
2017-12-26T02:02:58.990Z,0.08
2017-12-26T02:03:59.071Z,0.07
2017-12-26T02:04:59.307Z,0.1
2017-12-26T02:05:58.945Z,0.06
2017-12-26T02:06:58.876Z,0.06
2017-12-26T02:07:58.809Z,0.01
2017-12-26T02:08:58.865Z,-0.03
2017-12-26T02:09:58.899Z,-0.01
2017-12-26T02:10:59.175Z,-0.02
2017-12-26T02:11:58.991Z,-0.06
2017-12-26T02:12:58.968Z,-0.07
2017-12-26T02:13:58.938Z,-0.05
2017-12-26T02:14:59.000Z,-0.06
2017-12-26T02:15:58.961Z,-0.06
2017-12-26T02:16:59.044Z,-0.04
2017-12-26T02:17:58.822Z,-0.04
2017-12-26T02:18:58.693Z,-0.05
2017-12-26T02:19:59.018Z,-0.04
2017-12-26T02:20:59.107Z,-0.04
2017-12-26T02:21:59.108Z,-0.04
2017-12-26T02:23:00.011Z,-0.04
2017-12-26T02:23:59.145Z,-0.03
2017-12-26T02:24:58.940Z,-0.03
2017-12-26T02:25:58.850Z,-0.01
2017-12-26T02:26:59.005Z,-0.03
2017-12-26T02:27:59.055Z,-0.01
2017-12-26T02:28:59.196Z,-0.02
2017-12-26T02:29:59.137Z,0.04
2017-12-26T02:30:59.250Z,0.03
2017-12-26T02:31:59.009Z,0.01
2017-12-26T02:32:58.836Z,-0.03
2017-12-26T02:33:59.168Z,0
2017-12-26T02:34:59.187Z,0
2017-12-26T02:35:59.036Z,0.02
2017-12-26T02:36:58.940Z,0
2017-12-26T02:37:58.869Z,0
2017-12-26T02:38:58.853Z,-0.02
2017-12-26T02:39:59.001Z,0
2017-12-26T02:40:59.245Z,-0.01
2017-12-26T02:41:59.096Z,-0.02
2017-12-26T02:42:58.967Z,-0.02
2017-12-26T02:43:59.118Z,-0.04
2017-12-26T02:44:59.064Z,-0.05
2017-12-26T02:45:59.141Z,-0.05
2017-12-26T02:46:59.339Z,-0.02
2017-12-26T02:47:59.081Z,-0.01
2017-12-26T02:48:59.080Z,0.02
2017-12-26T02:49:58.977Z,0.06
2017-12-26T02:50:59.293Z,0.07
2017-12-26T02:51:59.004Z,0.11
2017-12-26T02:52:59.037Z,0.13
2017-12-26T02:53:59.070Z,0.11
2017-12-26T02:54:58.922Z,0.17
2017-12-26T02:55:59.307Z,0.18
2017-12-26T02:56:59.028Z,0.17
2017-12-26T02:57:59.021Z,0.16
2017-12-26T02:58:58.927Z,0.15
2017-12-26T02:59:59.002Z,0.17
2017-12-26T03:00:59.039Z,0.14
2017-12-26T03:01:58.970Z,0.14
2017-12-26T03:02:59.417Z,0.1
2017-12-26T03:03:58.882Z,0.1
2017-12-26T03:04:59.008Z,0.08
2017-12-26T03:05:59.288Z,0.06
2017-12-26T03:06:58.916Z,0.02
2017-12-26T03:07:58.940Z,0.01
2017-12-26T03:08:58.880Z,0
2017-12-26T03:09:58.951Z,-0.04
2017-12-26T03:10:59.135Z,0
2017-12-26T03:11:58.967Z,-0.05
2017-12-26T03:12:59.110Z,-0.04
2017-12-26T03:13:59.080Z,-0.07
2017-12-26T03:14:58.962Z,-0.1
2017-12-26T03:15:59.185Z,-0.17
2017-12-26T03:16:58.949Z,-0.15
2017-12-26T03:17:59.150Z,-0.18
2017-12-26T03:18:58.960Z,-0.18
2017-12-26T03:19:59.101Z,-0.2
2017-12-26T03:20:59.288Z,-0.2
2017-12-26T03:21:59.022Z,-0.2
2017-12-26T03:22:58.947Z,-0.2
2017-12-26T03:23:58.973Z,-0.2
2017-12-26T03:24:59.156Z,-0.21
2017-12-26T03:25:59.098Z,-0.19
2017-12-26T03:28:59.251Z,-0.14
2017-12-26T03:29:58.957Z,-0.15
2017-12-26T03:30:58.991Z,-0.16
2017-12-26T03:31:59.496Z,-0.14
2017-12-26T03:32:59.401Z,-0.09
2017-12-26T03:33:59.067Z,-0.1
2017-12-26T03:34:59.108Z,-0.11
2017-12-26T03:35:59.255Z,-0.1
2017-12-26T03:36:59.136Z,-0.09
2017-12-26T03:37:59.019Z,-0.11
2017-12-26T03:38:59.072Z,-0.12
2017-12-26T03:39:59.169Z,-0.12
2017-12-26T03:40:58.891Z,-0.09
2017-12-26T03:41:59.067Z,-0.1
2017-12-26T03:42:58.930Z,-0.08
2017-12-26T03:43:59.068Z,-0.05
2017-12-26T03:44:59.194Z,-0.01
2017-12-26T03:45:59.282Z,-0.01
2017-12-26T03:46:59.409Z,0.01
2017-12-26T03:47:59.234Z,0.01
2017-12-26T03:48:59.096Z,0.05
2017-12-26T03:49:59.356Z,0.08
2017-12-26T03:50:59.287Z,0.1
2017-12-26T03:51:59.264Z,0.13
2017-12-26T03:52:59.311Z,0.16
2017-12-26T03:53:59.345Z,0.17
2017-12-26T03:54:59.147Z,0.16
2017-12-26T03:55:59.170Z,0.2
2017-12-26T03:56:58.886Z,0.2
2017-12-26T03:57:59.189Z,0.17
2017-12-26T03:58:59.343Z,0.21
2017-12-26T03:59:59.188Z,0.26
2017-12-26T04:00:59.140Z,0.27
2017-12-26T04:01:59.000Z,0.28
2017-12-26T04:02:59.191Z,0.33
2017-12-26T04:03:59.334Z,0.3
2017-12-26T04:04:59.219Z,0.34
2017-12-26T04:05:59.126Z,0.33
2017-12-26T04:06:59.117Z,0.33
2017-12-26T04:07:59.408Z,0.34
2017-12-26T04:08:59.196Z,0.34
2017-12-26T04:09:59.123Z,0.34
2017-12-26T04:10:59.350Z,0.33
2017-12-26T04:11:59.267Z,0.31
2017-12-26T04:12:59.158Z,0.28
2017-12-26T04:13:59.278Z,0.28
2017-12-26T04:14:59.361Z,0.31
2017-12-26T04:15:59.154Z,0.32
2017-12-26T04:16:59.211Z,0.32
2017-12-26T04:17:59.039Z,0.31
2017-12-26T04:18:59.280Z,0.28
2017-12-26T04:19:59.286Z,0.32
2017-12-26T04:20:59.119Z,0.32
2017-12-26T04:21:58.990Z,0.32
2017-12-26T04:22:59.110Z,0.33
2017-12-26T04:23:59.294Z,0.38
2017-12-26T04:24:59.121Z,0.42
2017-12-26T04:25:59.225Z,0.41
2017-12-26T04:26:59.332Z,0.43
2017-12-26T04:27:59.177Z,0.41
2017-12-26T04:28:59.212Z,0.44
2017-12-26T04:29:59.231Z,0.48
2017-12-26T04:30:59.279Z,0.49
2017-12-26T04:31:59.434Z,0.53
2017-12-26T04:32:59.219Z,0.5
2017-12-26T04:33:59.462Z,0.5
2017-12-26T04:34:59.008Z,0.46
2017-12-26T04:35:59.257Z,0.44
2017-12-26T04:36:59.125Z,0.39
2017-12-26T04:37:59.213Z,0.37
2017-12-26T04:38:59.354Z,0.32
2017-12-26T04:39:59.203Z,0.33
2017-12-26T04:40:59.107Z,0.37
2017-12-26T04:41:59.297Z,0.35
2017-12-26T04:42:59.195Z,0.41
2017-12-26T04:43:59.068Z,0.41
2017-12-26T04:44:59.233Z,0.43
2017-12-26T04:45:59.704Z,0.39
2017-12-26T04:46:59.347Z,0.44
2017-12-26T04:47:59.417Z,0.48
2017-12-26T04:48:59.158Z,0.49
2017-12-26T04:49:59.288Z,0.52
2017-12-26T04:50:59.192Z,0.5
2017-12-26T04:51:59.535Z,0.5
2017-12-26T04:52:59.388Z,0.5
2017-12-26T04:53:59.130Z,0.53
2017-12-26T04:54:59.312Z,0.55
2017-12-26T04:55:59.170Z,0.57
2017-12-26T04:56:59.407Z,0.57
2017-12-26T04:57:59.287Z,0.57
2017-12-26T04:58:59.302Z,0.63
2017-12-26T04:59:59.229Z,0.67
2017-12-26T05:00:59.080Z,0.73
2017-12-26T05:01:59.115Z,0.77
2017-12-26T05:02:59.129Z,0.79
2017-12-26T05:03:59.389Z,0.8
2017-12-26T05:04:59.395Z,0.81
2017-12-26T05:05:59.310Z,0.85
2017-12-26T05:06:59.316Z,0.87
2017-12-26T05:07:59.253Z,0.88
2017-12-26T05:08:59.136Z,0.97
2017-12-26T05:09:59.405Z,0.99
2017-12-26T05:10:59.390Z,1
2017-12-26T05:11:59.561Z,0.99
2017-12-26T05:12:59.430Z,1.05
2017-12-26T05:13:59.476Z,1.05
2017-12-26T05:14:59.099Z,1.05
2017-12-26T05:15:59.398Z,1.06
2017-12-26T05:16:59.332Z,1.04
2017-12-26T05:17:59.337Z,1.04
2017-12-26T05:18:59.218Z,1.09
2017-12-26T05:19:59.265Z,1.06
2017-12-26T05:20:59.180Z,1.08
2017-12-26T05:21:59.333Z,1.07
2017-12-26T05:22:59.355Z,1.11
2017-12-26T05:23:59.219Z,1.15
2017-12-26T05:24:59.252Z,1.15
2017-12-26T05:25:59.275Z,1.14
2017-12-26T05:26:59.118Z,1.14
2017-12-26T05:27:59.554Z,1.14
2017-12-26T05:28:59.187Z,1.14
2017-12-26T05:29:59.067Z,1.13
2017-12-26T05:30:59.178Z,1.16
2017-12-26T05:31:59.410Z,1.16
2017-12-26T05:32:59.255Z,1.18
2017-12-26T05:33:59.297Z,1.15
2017-12-26T05:34:59.306Z,1.15
2017-12-26T05:35:59.274Z,1.11
2017-12-26T05:36:59.243Z,1.12
2017-12-26T05:37:59.389Z,1.15
2017-12-26T05:38:59.123Z,1.18
2017-12-26T05:39:59.228Z,1.14
2017-12-26T05:40:59.375Z,1.16
2017-12-26T05:41:59.187Z,1.21
2017-12-26T05:42:59.155Z,1.23
2017-12-26T05:43:59.459Z,1.26
2017-12-26T05:44:59.283Z,1.25
2017-12-26T05:45:59.306Z,1.27
2017-12-26T05:46:59.282Z,1.33
2017-12-26T05:47:59.142Z,1.32
2017-12-26T05:48:59.345Z,1.33
2017-12-26T05:49:59.311Z,1.33
2017-12-26T05:50:59.448Z,1.35
2017-12-26T05:51:59.292Z,1.34
2017-12-26T05:52:59.296Z,1.38
2017-12-26T05:53:59.381Z,1.39
2017-12-26T05:54:59.413Z,1.36
2017-12-26T05:55:59.486Z,1.4
2017-12-26T05:56:59.369Z,1.4
2017-12-26T05:57:59.180Z,1.5
2017-12-26T05:58:59.247Z,1.51
2017-12-26T05:59:59.303Z,1.56
2017-12-26T06:00:59.313Z,1.55
2017-12-26T06:01:59.727Z,1.56
2017-12-26T06:02:59.186Z,1.54
2017-12-26T06:03:59.333Z,1.54
2017-12-26T06:04:59.176Z,1.56
2017-12-26T06:05:59.213Z,1.56
2017-12-26T06:06:59.130Z,1.57
2017-12-26T06:07:59.250Z,1.58
2017-12-26T06:08:59.270Z,1.58
2017-12-26T06:09:59.571Z,1.55
2017-12-26T06:10:59.398Z,1.54
2017-12-26T06:11:59.294Z,1.52
2017-12-26T06:12:59.465Z,1.51
2017-12-26T06:13:59.303Z,1.52
2017-12-26T06:14:59.398Z,1.51
2017-12-26T06:15:59.294Z,1.53
2017-12-26T06:16:59.345Z,1.53
2017-12-26T06:17:59.278Z,1.55
2017-12-26T06:18:59.342Z,1.53
2017-12-26T06:19:59.370Z,1.55
2017-12-26T06:20:59.089Z,1.58
2017-12-26T06:21:59.525Z,1.57
2017-12-26T06:22:59.466Z,1.53
2017-12-26T06:23:59.249Z,1.57
2017-12-26T06:24:59.251Z,1.57
2017-12-26T06:25:59.346Z,1.54
2017-12-26T06:26:59.414Z,1.55
2017-12-26T06:27:59.460Z,1.51
2017-12-26T06:28:59.039Z,1.53
2017-12-26T06:29:59.635Z,1.53
2017-12-26T06:30:59.418Z,1.54
2017-12-26T06:31:59.487Z,1.55
2017-12-26T06:32:59.164Z,1.56
2017-12-26T06:33:59.418Z,1.58
2017-12-26T06:34:59.282Z,1.57
2017-12-26T06:35:59.392Z,1.58
2017-12-26T06:36:59.366Z,1.59
2017-12-26T06:37:59.422Z,1.57
2017-12-26T06:38:59.361Z,1.59
2017-12-26T06:39:59.373Z,1.61
2017-12-26T06:40:59.271Z,1.63
2017-12-26T06:41:59.359Z,1.64
2017-12-26T06:42:59.294Z,1.61
2017-12-26T06:43:59.184Z,1.63
2017-12-26T06:44:59.237Z,1.64
2017-12-26T06:45:59.182Z,1.63
2017-12-26T06:46:59.031Z,1.65
2017-12-26T06:47:59.227Z,1.63
2017-12-26T06:48:59.512Z,1.64
2017-12-26T06:49:59.350Z,1.65
2017-12-26T06:50:59.370Z,1.64
2017-12-26T06:51:59.543Z,1.61
2017-12-26T06:52:59.382Z,1.61
2017-12-26T06:53:59.254Z,1.59
2017-12-26T06:54:59.425Z,1.59
2017-12-26T06:55:59.082Z,1.58
2017-12-26T06:56:59.374Z,1.56
2017-12-26T06:57:59.354Z,1.56
2017-12-26T06:58:59.206Z,1.54
2017-12-26T06:59:59.692Z,1.55
2017-12-26T07:00:59.299Z,1.58
2017-12-26T07:01:59.436Z,1.59
2017-12-26T07:02:59.218Z,1.63
2017-12-26T07:03:59.324Z,1.64
2017-12-26T07:04:59.354Z,1.68
2017-12-26T07:05:59.246Z,1.67
2017-12-26T07:06:59.161Z,1.69
2017-12-26T07:07:59.401Z,1.71
2017-12-26T07:08:59.413Z,1.73
2017-12-26T07:09:59.349Z,1.77
2017-12-26T07:10:59.229Z,1.77
2017-12-26T07:11:59.301Z,1.8
2017-12-26T07:12:59.127Z,1.83
2017-12-26T07:13:59.292Z,1.87
2017-12-26T07:14:59.392Z,1.89
2017-12-26T07:15:59.155Z,1.89
2017-12-26T07:16:59.283Z,1.89
2017-12-26T07:17:59.333Z,1.89
2017-12-26T07:18:59.197Z,1.89
2017-12-26T07:19:59.366Z,1.86
2017-12-26T07:20:59.538Z,1.87
2017-12-26T07:21:59.307Z,1.89
2017-12-26T07:22:59.676Z,1.86
2017-12-26T07:23:59.483Z,1.85
2017-12-26T07:24:59.477Z,1.84
2017-12-26T07:25:59.528Z,1.84
2017-12-26T07:26:59.137Z,1.83
2017-12-26T07:27:59.141Z,1.8
2017-12-26T07:28:59.586Z,1.79
2017-12-26T07:29:59.295Z,1.78
2017-12-26T07:30:59.360Z,1.76
2017-12-26T07:31:59.162Z,1.75
2017-12-26T07:32:59.217Z,1.7
2017-12-26T07:33:59.204Z,1.68
2017-12-26T07:34:59.378Z,1.66
2017-12-26T07:35:59.248Z,1.63
2017-12-26T07:36:59.388Z,1.63
2017-12-26T07:37:59.419Z,1.64
2017-12-26T07:38:59.222Z,1.68
2017-12-26T07:39:59.175Z,1.67
2017-12-26T07:40:59.269Z,1.68
2017-12-26T07:41:59.324Z,1.7
2017-12-26T07:42:59.302Z,1.71
2017-12-26T07:43:59.253Z,1.75
2017-12-26T07:44:59.145Z,1.74
2017-12-26T07:45:59.400Z,1.71
2017-12-26T07:46:59.322Z,1.72
2017-12-26T07:49:59.838Z,1.83
2017-12-26T07:50:59.542Z,1.82
2017-12-26T07:51:59.310Z,1.91
2017-12-26T07:52:59.801Z,1.98
2017-12-26T07:53:59.518Z,2.02
2017-12-26T07:54:59.592Z,2.03
2017-12-26T07:55:59.752Z,2.07
2017-12-26T07:56:59.790Z,2.05
2017-12-26T07:57:59.692Z,2.09
2017-12-26T07:58:59.349Z,2.17
2017-12-26T07:59:59.714Z,2.19
2017-12-26T08:00:59.358Z,2.2
2017-12-26T08:01:59.612Z,2.18
2017-12-26T08:02:59.599Z,2.21
2017-12-26T08:03:59.540Z,2.25
2017-12-26T08:04:59.542Z,2.26
2017-12-26T08:05:59.095Z,2.22
2017-12-26T08:06:59.493Z,2.24
2017-12-26T08:07:59.713Z,2.26
2017-12-26T08:08:59.656Z,2.27
2017-12-26T08:09:59.413Z,2.32
2017-12-26T08:10:59.700Z,2.31
2017-12-26T08:11:59.668Z,2.33
2017-12-26T08:12:59.645Z,2.35
2017-12-26T08:13:59.612Z,2.38
2017-12-26T08:14:59.525Z,2.36
2017-12-26T08:15:59.498Z,2.39
2017-12-26T08:16:59.737Z,2.41
2017-12-26T08:17:59.406Z,2.46
2017-12-26T08:18:59.496Z,2.47
2017-12-26T08:19:59.318Z,2.52
2017-12-26T08:20:59.719Z,2.56
2017-12-26T08:21:59.531Z,2.64
2017-12-26T08:22:59.551Z,2.66
2017-12-26T08:23:59.440Z,2.76
2017-12-26T08:24:59.510Z,2.83
2017-12-26T08:25:59.490Z,2.85
2017-12-26T08:26:59.544Z,2.91
2017-12-26T08:27:59.449Z,2.92
2017-12-26T08:28:59.642Z,2.98
2017-12-26T08:29:59.325Z,3.04
2017-12-26T08:30:59.616Z,3.12
2017-12-26T08:31:59.574Z,3.23
2017-12-26T08:32:59.537Z,3.28
2017-12-26T08:33:59.590Z,3.36
2017-12-26T08:34:59.862Z,3.4
2017-12-26T08:35:59.799Z,3.48
2017-12-26T08:36:59.386Z,3.52
2017-12-26T08:37:59.835Z,3.56
2017-12-26T08:38:59.586Z,3.57
2017-12-26T08:39:59.612Z,3.63
2017-12-26T08:40:59.619Z,3.64
2017-12-26T08:41:59.770Z,3.65
2017-12-26T08:42:59.545Z,3.67
2017-12-26T08:43:59.886Z,3.69
2017-12-26T08:44:59.254Z,3.71
2017-12-26T08:45:59.564Z,3.72
2017-12-26T08:46:59.492Z,3.73
2017-12-26T08:47:59.718Z,3.77
2017-12-26T08:48:59.529Z,3.8
2017-12-26T08:49:59.406Z,3.87
2017-12-26T08:50:59.568Z,3.9
2017-12-26T08:51:59.591Z,3.95
2017-12-26T08:52:59.657Z,3.95
2017-12-26T08:53:59.578Z,3.95
2017-12-26T08:54:59.573Z,4
2017-12-26T08:55:59.741Z,3.98
2017-12-26T08:56:59.404Z,4
2017-12-26T08:57:59.569Z,4.03
2017-12-26T08:58:59.525Z,4.05
2017-12-26T08:59:59.614Z,4.05
2017-12-26T09:00:59.553Z,4.07
2017-12-26T09:01:59.538Z,4.08
2017-12-26T09:02:59.180Z,4.05
2017-12-26T09:03:59.621Z,4.05
2017-12-26T09:04:59.605Z,4.07
2017-12-26T09:05:59.533Z,4.08
2017-12-26T09:06:59.536Z,4.11
2017-12-26T09:07:59.634Z,4.09
2017-12-26T09:08:59.685Z,4.09
2017-12-26T09:10:00.104Z,4.09
2017-12-26T09:10:59.539Z,4.12
2017-12-26T09:11:59.630Z,4.14
2017-12-26T09:12:59.583Z,4.15
2017-12-26T09:13:59.770Z,4.17
2017-12-26T09:14:59.541Z,4.19
2017-12-26T09:15:59.583Z,4.21
2017-12-26T09:16:59.597Z,4.22
2017-12-26T09:17:59.540Z,4.23
2017-12-26T09:18:59.652Z,4.23
2017-12-26T09:19:59.721Z,4.24
2017-12-26T09:20:59.776Z,4.27
2017-12-26T09:21:59.882Z,4.29
2017-12-26T09:22:59.559Z,4.31
2017-12-26T09:23:59.809Z,4.33
2017-12-26T09:24:59.905Z,4.31
2017-12-26T09:28:08.101Z,4.42
2017-12-26T09:28:59.589Z,4.41
2017-12-26T09:29:59.737Z,4.43
2017-12-26T09:30:59.461Z,4.47
2017-12-26T09:31:59.539Z,4.48
2017-12-26T09:32:59.625Z,4.51
2017-12-26T09:33:59.694Z,4.52
2017-12-26T09:34:59.575Z,4.55
2017-12-26T09:35:59.737Z,4.58
2017-12-26T09:36:59.653Z,4.61
2017-12-26T09:37:59.801Z,4.64
2017-12-26T09:38:59.490Z,4.65
2017-12-26T09:39:59.584Z,4.63
2017-12-26T09:40:59.553Z,4.65
2017-12-26T09:44:06.137Z,4.66
2017-12-26T09:44:59.778Z,4.67
2017-12-26T09:45:59.700Z,4.67
2017-12-26T09:46:59.465Z,4.68
2017-12-26T09:47:59.806Z,4.69
2017-12-26T09:48:59.838Z,4.7
2017-12-26T09:49:59.846Z,4.7
2017-12-26T09:51:00.212Z,4.74
2017-12-26T09:51:59.801Z,4.74
2017-12-26T09:52:59.699Z,4.75
2017-12-26T09:53:59.726Z,4.76
2017-12-26T09:54:59.570Z,4.77
2017-12-26T09:55:59.845Z,4.78
2017-12-26T09:56:59.772Z,4.81
2017-12-26T09:57:59.773Z,4.83
2017-12-26T09:58:59.687Z,4.85
2017-12-26T09:59:59.923Z,4.87
2017-12-26T10:00:59.597Z,4.87
2017-12-26T10:01:59.812Z,4.87
2017-12-26T10:02:59.819Z,4.86
2017-12-26T10:03:59.785Z,4.84
2017-12-26T10:04:59.945Z,4.86
2017-12-26T10:05:59.888Z,4.84
2017-12-26T10:06:59.488Z,4.81
2017-12-26T10:07:59.851Z,4.79
2017-12-26T10:08:59.648Z,4.79
2017-12-26T10:09:59.526Z,4.74
2017-12-26T10:10:59.686Z,4.75
2017-12-26T10:11:59.675Z,4.73
2017-12-26T10:13:00.002Z,4.72
2017-12-26T10:13:59.623Z,4.71
2017-12-26T10:14:59.810Z,4.68
2017-12-26T10:15:59.485Z,4.67
2017-12-26T10:16:59.712Z,4.71
2017-12-26T10:18:00.242Z,4.72
2017-12-26T10:18:59.492Z,4.72
2017-12-26T10:19:59.837Z,4.74
2017-12-26T10:20:59.434Z,4.76
2017-12-26T10:21:59.875Z,4.76
2017-12-26T10:22:59.748Z,4.75
2017-12-26T10:23:59.822Z,4.77
2017-12-26T10:24:59.668Z,4.78
2017-12-26T10:26:00.042Z,4.79
2017-12-26T10:26:59.941Z,4.79
2017-12-26T10:27:59.846Z,4.81
2017-12-26T10:28:59.888Z,4.82
2017-12-26T10:30:00.881Z,4.84
2017-12-26T10:31:00.502Z,4.84
2017-12-26T10:32:00.488Z,4.87
2017-12-26T10:33:00.029Z,4.84
2017-12-26T10:33:59.921Z,4.87
2017-12-26T10:34:59.798Z,4.9
2017-12-26T10:36:00.006Z,4.92
2017-12-26T10:36:59.877Z,4.91
2017-12-26T10:38:00.125Z,4.95
2017-12-26T10:38:59.792Z,4.96
2017-12-26T10:39:59.897Z,4.99
2017-12-26T10:41:00.520Z,5.01
2017-12-26T10:42:00.279Z,5
2017-12-26T10:43:00.209Z,5.04
2017-12-26T10:44:00.221Z,5.06
2017-12-26T10:44:59.925Z,5.06
2017-12-26T10:46:00.143Z,5.09
2017-12-26T10:47:00.437Z,5.14
2017-12-26T10:48:03.919Z,5.16
2017-12-26T10:49:00.088Z,5.39
2017-12-26T10:50:00.403Z,5.52
2017-12-26T10:51:00.274Z,5.59
2017-12-26T10:52:00.241Z,5.62
2017-12-26T10:53:00.434Z,5.67
2017-12-26T10:54:00.168Z,5.69
2017-12-26T10:55:00.287Z,5.68
2017-12-26T10:56:00.047Z,5.73
2017-12-26T10:57:00.009Z,5.73
2017-12-26T10:58:00.076Z,5.74
2017-12-26T10:59:00.195Z,5.77
2017-12-26T11:00:00.372Z,5.79
2017-12-26T11:01:00.970Z,5.82
2017-12-26T11:02:00.281Z,5.8
2017-12-26T11:03:00.010Z,5.84
2017-12-26T11:03:59.852Z,5.88
2017-12-26T11:05:00.025Z,5.9
2017-12-26T11:06:00.075Z,5.96
2017-12-26T11:06:59.953Z,6.03
2017-12-26T11:08:00.155Z,6.1
2017-12-26T11:09:00.139Z,6.17
2017-12-26T11:10:00.381Z,6.27
2017-12-26T11:11:00.304Z,6.3
2017-12-26T11:12:01.553Z,6.35
2017-12-26T11:13:00.134Z,6.42
2017-12-26T11:13:59.914Z,6.54
2017-12-26T11:15:00.261Z,6.69
2017-12-26T11:15:59.932Z,6.72
2017-12-26T11:17:00.176Z,6.72
2017-12-26T11:18:00.064Z,6.77
2017-12-26T11:19:00.128Z,6.8
2017-12-26T11:20:00.225Z,6.82
2017-12-26T11:21:00.003Z,6.84
2017-12-26T11:22:00.160Z,6.89
2017-12-26T11:23:00.109Z,6.91
2017-12-26T11:23:59.932Z,6.93
2017-12-26T11:25:00.199Z,6.93
2017-12-26T11:26:00.319Z,6.99
2017-12-26T11:27:01.497Z,7.07
2017-12-26T11:28:01.706Z,7.11
2017-12-26T11:28:59.773Z,7.09
2017-12-26T11:30:01.870Z,7.1
2017-12-26T11:31:00.426Z,7.07
2017-12-26T11:32:00.226Z,7.12
2017-12-26T11:33:00.060Z,7.16
2017-12-26T11:34:00.053Z,7.14
2017-12-26T11:34:59.909Z,7.13
2017-12-26T11:36:00.182Z,7.08
2017-12-26T11:36:59.801Z,7.07
2017-12-26T11:38:12.209Z,7.12
2017-12-26T11:38:59.721Z,7.13
2017-12-26T11:40:00.182Z,7.12
2017-12-26T11:41:00.204Z,7.12
2017-12-26T11:41:59.903Z,7.11
2017-12-26T11:42:59.984Z,7.14
2017-12-26T11:44:00.083Z,7.15
2017-12-26T11:45:00.184Z,7.15
2017-12-26T11:46:00.110Z,7.16
2017-12-26T11:47:00.042Z,7.15
2017-12-26T11:47:59.903Z,7.15
2017-12-26T11:48:59.896Z,7.16
2017-12-26T11:49:59.898Z,7.21
2017-12-26T11:51:00.084Z,7.19
2017-12-26T11:52:00.008Z,7.21
2017-12-26T11:52:59.819Z,7.25
2017-12-26T11:53:59.944Z,7.25
2017-12-26T11:55:00.190Z,7.26
2017-12-26T11:56:01.832Z,7.26
2017-12-26T11:57:00.990Z,7.25
2017-12-26T11:58:00.080Z,7.22
2017-12-26T11:59:01.507Z,7.21
2017-12-26T12:00:00.071Z,7.2
2017-12-26T12:01:01.122Z,7.19
2017-12-26T12:01:59.868Z,7.18
2017-12-26T12:03:00.631Z,7.2
2017-12-26T12:04:02.391Z,7.16
2017-12-26T12:05:00.913Z,7.2
2017-12-26T12:06:01.250Z,7.24
2017-12-26T12:06:59.934Z,7.24
2017-12-26T12:08:00.108Z,7.25
2017-12-26T12:09:01.352Z,7.23
2017-12-26T12:10:00.255Z,7.26
2017-12-26T12:11:01.195Z,7.24
2017-12-26T12:11:59.871Z,7.25
2017-12-26T12:13:09.401Z,7.25
2017-12-26T12:13:59.837Z,7.23
2017-12-26T12:14:59.940Z,7.29
2017-12-26T12:16:00.272Z,7.32
2017-12-26T12:16:59.762Z,7.29
2017-12-26T12:18:00.752Z,7.31
2017-12-26T12:19:00.503Z,7.29
2017-12-26T12:19:59.998Z,7.31
2017-12-26T12:21:00.787Z,7.28
2017-12-26T12:21:59.785Z,7.27
2017-12-26T12:22:59.844Z,7.27
2017-12-26T12:24:05.496Z,7.25
2017-12-26T12:24:59.653Z,7.23
2017-12-26T12:26:03.384Z,7.21
2017-12-26T12:27:06.177Z,7.22
2017-12-26T12:29:10.728Z,7.22
2017-12-26T12:31:02.584Z,7.2
2017-12-26T12:32:01.003Z,7.21
2017-12-26T12:33:12.307Z,7.22
2017-12-26T12:34:09.256Z,7.24
2017-12-26T12:35:10.569Z,7.22
2017-12-26T12:36:07.710Z,7.21
2017-12-26T12:37:22.389Z,7.22
2017-12-26T12:39:37.897Z,7.22
2017-12-26T12:40:12.931Z,7.22
2017-12-26T12:44:39.081Z,7.26
2017-12-26T12:47:59.906Z,7.26
2017-12-26T12:49:00.559Z,7.28
2017-12-26T12:49:59.870Z,7.28
2017-12-26T12:51:00.139Z,7.3
2017-12-26T12:52:00.707Z,7.31
2017-12-26T12:53:00.443Z,7.32
2017-12-26T12:54:00.769Z,7.35
2017-12-26T12:54:59.748Z,7.38
2017-12-26T12:55:59.943Z,7.4
2017-12-26T12:56:59.966Z,7.38
2017-12-26T12:57:59.784Z,7.39
2017-12-26T12:58:59.718Z,7.36
2017-12-26T13:00:00.236Z,7.35
2017-12-26T13:01:00.217Z,7.36
2017-12-26T13:01:59.816Z,7.39
2017-12-26T13:03:00.781Z,7.39
2017-12-26T13:03:59.932Z,7.39
2017-12-26T13:04:59.866Z,7.39
2017-12-26T13:05:59.836Z,7.4
2017-12-26T13:07:00.010Z,7.41
2017-12-26T13:07:59.986Z,7.41
2017-12-26T13:09:00.158Z,7.41
2017-12-26T13:10:00.031Z,7.42
2017-12-26T13:11:00.159Z,7.41
2017-12-26T13:12:00.456Z,7.44
2017-12-26T13:13:00.970Z,7.41
2017-12-26T13:13:59.913Z,7.38
2017-12-26T13:14:59.740Z,7.39
2017-12-26T13:16:00.070Z,7.4
2017-12-26T13:17:00.013Z,7.4
2017-12-26T13:17:59.918Z,7.4
2017-12-26T13:18:59.894Z,7.44
2017-12-26T13:20:00.458Z,7.42
2017-12-26T13:21:00.156Z,7.42
2017-12-26T13:22:00.048Z,7.41
2017-12-26T13:22:59.827Z,7.41
2017-12-26T13:24:00.441Z,7.42
2017-12-26T13:25:00.127Z,7.42
2017-12-26T13:26:00.735Z,7.42
2017-12-26T13:27:00.359Z,7.46
2017-12-26T13:28:00.442Z,7.48
2017-12-26T13:29:01.510Z,7.47
2017-12-26T13:30:02.013Z,7.47
2017-12-26T13:31:02.016Z,7.47
2017-12-26T13:32:03.406Z,7.47
2017-12-26T13:33:01.274Z,7.49
2017-12-26T13:34:01.318Z,7.46
2017-12-26T13:35:00.619Z,7.41